createdAt,value
2018-07-03T00:01:19.463Z,2.60
2018-07-03T00:03:48.487Z,2.80
2018-07-03T00:06:17.702Z,4.70
2018-07-03T00:08:46.955Z,1.93
2018-07-03T00:11:15.858Z,1.90
2018-07-03T00:13:44.979Z,3.00
2018-07-03T00:16:19.027Z,2.37
2018-07-03T00:18:48.656Z,3.80
2018-07-03T00:21:18.620Z,1.93
2018-07-03T00:23:47.615Z,3.10
2018-07-03T00:26:16.742Z,3.20
2018-07-03T00:28:45.689Z,2.50
2018-07-03T00:31:14.739Z,3.10
2018-07-03T00:33:44.249Z,2.90
2018-07-03T00:36:13.734Z,3.70
2018-07-03T00:38:43.480Z,2.43
2018-07-03T00:41:12.474Z,3.40
2018-07-03T00:43:41.381Z,3.17
2018-07-03T00:46:10.356Z,2.90
2018-07-03T00:48:39.404Z,2.70
2018-07-03T00:51:09.112Z,3.10
2018-07-03T00:53:38.069Z,4.80
2018-07-03T00:56:07.111Z,2.27
2018-07-03T00:58:36.658Z,2.67
2018-07-03T01:01:06.581Z,2.73
2018-07-03T01:03:37.959Z,4.00
2018-07-03T01:06:06.926Z,4.10
2018-07-03T01:08:36.494Z,4.97
2018-07-03T01:11:05.932Z,3.37
2018-07-03T01:13:34.933Z,2.47
2018-07-03T01:16:04.069Z,3.57
2018-07-03T01:18:32.957Z,4.23
2018-07-03T01:21:02.672Z,3.43
2018-07-03T01:23:32.428Z,2.57
2018-07-03T01:26:02.214Z,2.20
2018-07-03T01:28:31.332Z,2.50
2018-07-03T01:31:00.282Z,3.23
2018-07-03T01:33:29.287Z,3.90
2018-07-03T01:35:58.333Z,2.87
2018-07-03T01:38:27.378Z,4.17
2018-07-03T01:40:56.296Z,3.40
2018-07-03T01:43:26.669Z,4.37
2018-07-03T01:45:55.861Z,3.97
2018-07-03T01:48:24.833Z,3.53
2018-07-03T01:50:53.998Z,2.53
2018-07-03T01:53:22.987Z,3.27
2018-07-03T01:55:51.901Z,2.33
2018-07-03T01:58:21.574Z,3.73
2018-07-03T02:00:50.804Z,2.80
2018-07-03T02:03:19.834Z,4.67
2018-07-03T02:05:50.368Z,2.30
2018-07-03T02:08:19.477Z,4.10
2018-07-03T02:10:48.769Z,3.30
2018-07-03T02:13:18.913Z,3.47
2018-07-03T02:15:47.911Z,3.93
2018-07-03T02:18:17.200Z,2.90
2018-07-03T02:20:46.905Z,2.60
2018-07-03T02:23:16.834Z,5.60
2018-07-03T02:25:45.802Z,4.63
2018-07-03T02:28:14.816Z,3.60
2018-07-03T02:30:43.788Z,2.33
2018-07-03T02:33:12.691Z,2.63
2018-07-03T02:35:41.690Z,3.43
2018-07-03T02:38:11.079Z,2.90
2018-07-03T02:40:41.350Z,3.07
2018-07-03T02:43:10.309Z,3.10
2018-07-03T02:45:39.291Z,2.73
2018-07-03T02:48:08.337Z,2.40
2018-07-03T02:50:38.318Z,3.97
2018-07-03T02:53:07.253Z,3.37
2018-07-03T02:55:36.198Z,3.70
2018-07-03T02:58:05.108Z,5.57
2018-07-03T03:00:34.642Z,4.67
2018-07-03T03:03:04.896Z,2.47
2018-07-03T03:05:34.024Z,3.83
2018-07-03T03:08:03.037Z,2.90
2018-07-03T03:10:32.513Z,3.20
2018-07-03T03:13:02.742Z,2.70
2018-07-03T03:15:31.687Z,3.00
2018-07-03T03:18:01.449Z,2.50
2018-07-03T03:20:31.353Z,2.83
2018-07-03T03:23:00.232Z,6.63
2018-07-03T03:25:31.380Z,3.93
2018-07-03T03:28:00.650Z,3.70
2018-07-03T03:30:29.681Z,2.70
2018-07-03T03:32:58.617Z,2.50
2018-07-03T03:35:28.889Z,2.97
2018-07-03T03:37:57.914Z,2.87
2018-07-03T03:40:27.293Z,3.50
2018-07-03T03:42:57.004Z,2.50
2018-07-03T03:45:26.873Z,2.73
2018-07-03T03:47:56.081Z,4.47
2018-07-03T03:50:26.353Z,3.40
2018-07-03T03:52:55.409Z,4.93
2018-07-03T03:55:24.438Z,3.27
2018-07-03T03:57:54.485Z,4.03
2018-07-03T04:00:23.532Z,2.97
2018-07-03T04:02:52.459Z,2.50
2018-07-03T04:05:23.163Z,2.43
2018-07-03T04:07:52.321Z,3.20
2018-07-03T04:10:21.301Z,2.10
2018-07-03T04:12:50.359Z,2.93
2018-07-03T04:15:20.920Z,2.40
2018-07-03T04:17:50.531Z,2.57
2018-07-03T04:20:19.398Z,4.00
2018-07-03T04:22:48.468Z,3.33
2018-07-03T04:25:17.270Z,4.50
2018-07-03T04:27:46.264Z,4.10
2018-07-03T04:30:15.460Z,5.07
2018-07-03T04:32:44.183Z,2.43
2018-07-03T04:35:13.198Z,4.10
2018-07-03T04:37:42.260Z,2.80
2018-07-03T04:40:11.279Z,5.33
2018-07-03T04:42:40.393Z,2.00
2018-07-03T04:45:09.556Z,1.83
2018-07-03T04:47:38.567Z,2.07
2018-07-03T04:50:07.583Z,3.27
2018-07-03T04:52:36.611Z,2.10
2018-07-03T04:55:05.823Z,1.40
2018-07-03T04:57:34.795Z,1.43
2018-07-03T05:00:03.877Z,1.37
2018-07-03T05:02:33.073Z,1.30
2018-07-03T05:05:02.085Z,3.00
2018-07-03T05:07:31.102Z,2.40
2018-07-03T05:09:59.928Z,1.43
2018-07-03T05:12:29.453Z,2.07
2018-07-03T05:14:58.572Z,2.70
2018-07-03T05:17:28.479Z,3.67
2018-07-03T05:19:57.609Z,2.50
2018-07-03T05:22:26.630Z,2.03
2018-07-03T05:24:55.732Z,1.17
2018-07-03T05:27:25.377Z,1.65
2018-07-03T05:29:54.488Z,1.52
2018-07-03T05:32:23.626Z,1.32
2018-07-03T05:34:53.234Z,3.92
2018-07-03T05:37:23.703Z,3.12
2018-07-03T05:39:52.727Z,3.35
2018-07-03T05:42:22.683Z,2.02
2018-07-03T05:44:51.743Z,2.80
2018-07-03T05:47:23.525Z,1.05
2018-07-03T05:49:52.541Z,2.33
2018-07-03T05:52:21.786Z,1.17
2018-07-03T05:54:50.818Z,1.17
2018-07-03T05:57:21.341Z,3.50
2018-07-03T05:59:50.478Z,1.05
2018-07-03T06:02:19.897Z,1.25
2018-07-03T06:04:49.762Z,1.17
2018-07-03T06:07:18.698Z,2.70
2018-07-03T06:09:49.495Z,2.22
2018-07-03T06:12:18.638Z,1.00
2018-07-03T06:14:47.690Z,5.15
2018-07-03T06:17:18.227Z,2.12
2018-07-03T06:19:47.216Z,2.05
2018-07-03T06:22:17.125Z,1.80
2018-07-03T06:24:46.237Z,1.55
2018-07-03T06:27:15.451Z,0.93
2018-07-03T06:29:45.695Z,1.25
2018-07-03T06:32:15.674Z,1.42
2018-07-03T06:34:45.385Z,1.32
2018-07-03T06:37:15.444Z,1.57
2018-07-03T06:39:44.521Z,1.27
2018-07-03T06:42:14.468Z,1.75
2018-07-03T06:44:45.427Z,1.12
2018-07-03T06:47:14.635Z,1.12
2018-07-03T06:49:43.840Z,3.52
2018-07-03T06:52:14.795Z,1.80
2018-07-03T06:54:43.866Z,1.72
2018-07-03T06:57:13.679Z,1.00
2018-07-03T06:59:42.705Z,0.90
2018-07-03T07:05:11.137Z,1.07
2018-07-03T07:07:40.527Z,2.15
2018-07-03T07:10:11.464Z,3.92
2018-07-03T07:12:40.561Z,2.95
2018-07-03T07:15:11.507Z,2.20
2018-07-03T07:17:45.872Z,6.65
2018-07-03T07:20:16.438Z,8.05
2018-07-03T07:22:45.566Z,3.40
2018-07-03T07:25:16.558Z,4.30
2018-07-03T07:27:46.247Z,1.57
2018-07-03T07:30:18.139Z,1.20
2018-07-03T07:32:49.721Z,1.45
2018-07-03T07:35:18.853Z,2.47
2018-07-03T07:37:49.083Z,1.02
2018-07-03T07:40:20.527Z,2.08
2018-07-03T07:42:50.344Z,1.67
2018-07-03T07:45:19.204Z,3.22
2018-07-03T07:47:49.038Z,1.00
2018-07-03T07:50:19.008Z,3.35
2018-07-03T07:52:48.980Z,2.67
2018-07-03T07:55:19.971Z,3.80
2018-07-03T07:57:50.084Z,3.17
2018-07-03T08:00:21.532Z,2.47
2018-07-03T08:02:51.043Z,1.55
2018-07-03T08:05:20.971Z,1.65
2018-07-03T08:07:50.095Z,1.35
2018-07-03T08:10:19.630Z,2.12
2018-07-03T08:12:48.751Z,1.15
2018-07-03T08:15:17.900Z,4.20
2018-07-03T08:17:47.631Z,2.77
2018-07-03T08:20:17.594Z,5.87
2018-07-03T08:22:49.398Z,3.15
2018-07-03T08:25:20.761Z,2.12
2018-07-03T08:27:49.897Z,0.80
2018-07-03T08:30:20.029Z,1.17
2018-07-03T08:32:51.000Z,9.60
2018-07-03T08:35:20.052Z,4.97
2018-07-03T08:37:49.491Z,2.52
2018-07-03T08:40:18.575Z,1.80
2018-07-03T08:42:50.421Z,2.98
2018-07-03T08:45:19.533Z,4.30
2018-07-03T08:47:50.071Z,2.35
2018-07-03T08:50:19.827Z,2.65
2018-07-03T08:52:48.830Z,1.27
2018-07-03T08:55:20.478Z,1.05
2018-07-03T08:57:49.817Z,2.15
2018-07-03T09:00:20.644Z,3.33
2018-07-03T09:02:51.269Z,2.67
2018-07-03T09:05:21.377Z,1.02
2018-07-03T09:07:51.737Z,1.70
2018-07-03T09:10:20.816Z,1.80
2018-07-03T09:12:50.838Z,0.60
2018-07-03T09:15:20.037Z,2.72
2018-07-03T09:17:51.936Z,0.78
2018-07-03T09:20:21.483Z,0.68
2018-07-03T09:22:50.627Z,1.50
2018-07-03T09:25:20.473Z,1.40
2018-07-03T09:27:50.984Z,2.00
2018-07-03T09:30:20.705Z,1.80
2018-07-03T09:32:52.127Z,1.52
2018-07-03T09:35:21.279Z,1.77
2018-07-03T09:37:51.280Z,2.12
2018-07-03T09:40:20.371Z,0.40
2018-07-03T09:42:54.935Z,0.78
2018-07-03T09:45:25.622Z,2.83
2018-07-03T09:47:54.793Z,1.85
2018-07-03T09:50:25.900Z,1.67
2018-07-03T09:52:54.943Z,0.85
2018-07-03T09:55:25.582Z,1.00
2018-07-03T09:57:55.675Z,1.05
2018-07-03T10:00:30.069Z,0.68
2018-07-03T10:03:00.424Z,1.37
2018-07-03T10:05:30.558Z,0.80
2018-07-03T10:07:59.683Z,0.60
2018-07-03T10:10:30.777Z,0.72
2018-07-03T10:13:01.630Z,2.35
2018-07-03T10:15:30.660Z,2.37
2018-07-03T10:18:00.924Z,0.85
2018-07-03T10:20:30.960Z,3.75
2018-07-03T10:23:01.389Z,4.08
2018-07-03T10:25:31.629Z,0.68
2018-07-03T10:28:02.063Z,1.05
2018-07-03T10:30:31.259Z,0.82
2018-07-03T10:33:00.311Z,0.78
2018-07-03T10:35:30.221Z,1.00
2018-07-03T10:38:00.213Z,0.70
2018-07-03T10:40:30.457Z,1.75
2018-07-03T10:43:00.232Z,2.33
2018-07-03T10:45:30.060Z,3.05
2018-07-03T10:48:02.439Z,1.05
2018-07-03T10:50:32.958Z,2.25
2018-07-03T10:53:03.027Z,0.60
2018-07-03T10:55:33.355Z,1.45
2018-07-03T10:58:04.146Z,0.68
2018-07-03T11:00:34.174Z,1.67
2018-07-03T11:03:03.831Z,2.62
2018-07-03T11:05:33.659Z,0.50
2018-07-03T11:08:02.703Z,0.60
2018-07-03T11:10:31.766Z,0.62
2018-07-03T11:13:01.339Z,1.55
2018-07-03T11:15:31.257Z,2.33
2018-07-03T11:18:00.295Z,1.82
2018-07-03T11:20:30.301Z,1.80
2018-07-03T11:22:59.601Z,2.50
2018-07-03T11:25:29.466Z,1.47
2018-07-03T11:27:59.874Z,1.07
2018-07-03T11:30:29.557Z,2.27
2018-07-03T11:32:59.557Z,1.82
2018-07-03T11:35:28.755Z,0.90
2018-07-03T11:37:59.672Z,1.00
2018-07-03T11:40:29.150Z,1.07
2018-07-03T11:42:58.216Z,0.60
2018-07-03T11:45:28.551Z,0.72
2018-07-03T11:47:57.731Z,1.85
2018-07-03T11:50:27.611Z,0.57
2018-07-03T11:52:58.246Z,0.60
2018-07-03T11:55:27.239Z,0.50
2018-07-03T11:57:58.821Z,1.45
2018-07-03T12:00:28.062Z,0.55
2018-07-03T12:02:57.233Z,1.37
2018-07-03T12:05:28.494Z,0.80
2018-07-03T12:07:57.489Z,3.02
2018-07-03T12:10:27.809Z,1.42
2018-07-03T12:12:57.739Z,3.12
2018-07-03T12:15:32.566Z,3.05
2018-07-03T12:18:01.694Z,2.05
2018-07-03T12:20:34.606Z,2.92
2018-07-03T12:23:03.590Z,1.02
2018-07-03T12:25:33.199Z,2.90
2018-07-03T12:28:03.006Z,0.80
2018-07-03T12:30:32.720Z,1.32
2018-07-03T12:33:02.749Z,4.80
2018-07-03T12:35:32.939Z,1.07
2018-07-03T12:38:02.625Z,0.88
2018-07-03T12:40:33.135Z,1.50
2018-07-03T12:43:03.862Z,2.15
2018-07-03T12:45:33.853Z,1.37
2018-07-03T12:48:05.159Z,4.37
2018-07-03T12:50:34.191Z,2.45
2018-07-03T12:53:03.081Z,2.80
2018-07-03T12:55:32.023Z,2.27
2018-07-03T12:58:02.009Z,0.60
2018-07-03T13:00:31.726Z,1.57
2018-07-03T13:03:00.900Z,1.77
2018-07-03T13:05:30.730Z,2.27
2018-07-03T13:07:59.997Z,2.00
2018-07-03T13:10:29.672Z,3.22
2018-07-03T13:13:00.726Z,1.70
2018-07-03T13:15:30.906Z,2.47
2018-07-03T13:18:04.947Z,1.22
2018-07-03T13:20:37.072Z,2.90
2018-07-03T13:23:10.231Z,2.12
2018-07-03T13:25:40.219Z,1.22
2018-07-03T13:28:10.221Z,0.82
2018-07-03T13:30:40.832Z,1.65
2018-07-03T13:33:09.983Z,0.82
2018-07-03T13:35:40.425Z,1.35
2018-07-03T13:38:09.556Z,3.05
2018-07-03T13:40:42.774Z,1.17
2018-07-03T13:43:11.974Z,0.80
2018-07-03T13:45:50.311Z,1.57
2018-07-03T13:48:19.955Z,3.62
2018-07-03T13:50:50.862Z,3.77
2018-07-03T13:53:19.982Z,1.55
2018-07-03T13:55:49.170Z,1.10
2018-07-03T13:58:18.130Z,1.77
2018-07-03T14:00:48.024Z,2.85
2018-07-03T14:03:17.686Z,2.25
2018-07-03T14:05:47.481Z,1.70
2018-07-03T14:08:18.618Z,2.42
2018-07-03T14:10:51.592Z,2.05
2018-07-03T14:13:22.132Z,3.37
2018-07-03T14:15:53.925Z,4.30
2018-07-03T14:18:26.872Z,4.00
2018-07-03T14:20:58.634Z,1.17
2018-07-03T14:23:29.513Z,2.62
2018-07-03T14:25:59.299Z,1.90
2018-07-03T14:28:29.797Z,2.40
2018-07-03T14:30:59.503Z,2.98
2018-07-03T14:33:29.191Z,2.37
2018-07-03T14:35:59.883Z,1.35
2018-07-03T14:38:29.428Z,3.25
2018-07-03T14:40:59.292Z,0.88
2018-07-03T14:43:30.303Z,4.50
2018-07-03T14:46:00.085Z,3.58
2018-07-03T14:48:31.500Z,1.77
2018-07-03T14:51:01.562Z,5.70
2018-07-03T14:53:31.894Z,0.80
2018-07-03T14:56:03.556Z,3.83
2018-07-03T14:58:32.598Z,2.20
2018-07-03T15:01:02.439Z,3.90
2018-07-03T15:03:32.391Z,3.87
2018-07-03T15:06:02.995Z,8.38
2018-07-03T15:08:36.763Z,1.27
2018-07-03T15:11:07.841Z,3.40
2018-07-03T15:13:38.274Z,1.00
2018-07-03T15:16:11.475Z,1.77
2018-07-03T15:18:45.502Z,4.03
2018-07-03T15:21:15.586Z,5.83
2018-07-03T15:23:47.765Z,6.33
2018-07-03T15:26:16.749Z,1.10
2018-07-03T15:28:46.682Z,2.25
2018-07-03T15:31:16.708Z,2.40
2018-07-03T15:33:45.176Z,2.50
2018-07-03T15:36:13.837Z,4.35
2018-07-03T15:38:42.558Z,2.80
2018-07-03T15:41:11.743Z,1.57
2018-07-03T15:43:42.144Z,0.82
2018-07-03T15:46:10.663Z,1.40
2018-07-03T15:48:39.231Z,1.52
2018-07-03T15:51:07.769Z,1.67
2018-07-03T15:53:36.217Z,3.40
2018-07-03T15:56:05.014Z,1.82
2018-07-03T15:58:33.522Z,1.30
2018-07-03T16:01:05.088Z,3.70
2018-07-03T16:06:10.877Z,2.98
2018-07-03T16:09:17.900Z,2.45
2018-07-03T16:11:46.639Z,1.85
2018-07-03T16:14:15.145Z,4.50
2018-07-03T16:16:43.809Z,1.87
2018-07-03T16:19:17.659Z,1.82
2018-07-03T16:21:48.742Z,1.27
2018-07-03T16:24:17.421Z,1.35
2018-07-03T16:26:46.231Z,3.85
2018-07-03T16:29:14.780Z,1.15
2018-07-03T16:31:43.736Z,1.57
2018-07-03T16:34:12.199Z,0.85
2018-07-03T16:36:42.485Z,2.00
2018-07-03T16:39:12.244Z,6.75
2018-07-03T16:41:40.728Z,1.12
2018-07-03T16:44:10.222Z,4.78
2018-07-03T16:46:39.044Z,1.98
2018-07-03T16:49:08.004Z,3.15
2018-07-03T16:51:37.770Z,1.05
2018-07-03T16:54:06.503Z,4.45
2018-07-03T16:56:35.174Z,2.98
2018-07-03T16:59:04.683Z,1.77
2018-07-03T17:01:33.166Z,1.95
2018-07-03T17:04:01.897Z,0.98
2018-07-03T17:06:30.410Z,1.65
2018-07-03T17:09:01.494Z,1.15
2018-07-03T17:11:29.979Z,4.35
2018-07-03T17:13:58.530Z,1.75
2018-07-03T17:16:27.035Z,3.10
2018-07-03T17:19:00.902Z,1.70
2018-07-03T17:21:29.369Z,1.17
2018-07-03T17:23:57.906Z,1.12
2018-07-03T17:26:26.759Z,3.27
2018-07-03T17:28:55.298Z,1.20
2018-07-03T17:31:23.742Z,2.08
2018-07-03T17:33:52.327Z,1.20
2018-07-03T17:36:24.201Z,1.12
2018-07-03T17:38:52.807Z,4.15
2018-07-03T17:41:33.490Z,4.42
2018-07-03T17:44:15.230Z,3.65
2018-07-03T17:46:43.761Z,3.05
2018-07-03T17:49:12.298Z,2.22
2018-07-03T17:51:40.850Z,3.98
2018-07-03T17:54:09.487Z,4.28
2018-07-03T17:56:38.067Z,3.55
2018-07-03T17:59:06.585Z,2.25
2018-07-03T18:01:35.090Z,3.27
2018-07-03T18:04:03.644Z,3.60
2018-07-03T18:06:33.534Z,2.92
2018-07-03T18:09:02.016Z,1.15
2018-07-03T18:11:30.547Z,2.25
2018-07-03T18:13:59.032Z,1.12
2018-07-03T18:16:27.759Z,1.00
2018-07-03T18:19:01.834Z,1.72
2018-07-03T18:21:30.346Z,5.12
2018-07-03T18:23:58.824Z,3.45
2018-07-03T18:26:27.416Z,2.90
2018-07-03T18:28:55.962Z,4.40
2018-07-03T18:31:24.475Z,1.35
2018-07-03T18:33:53.089Z,2.92
2018-07-03T18:36:21.646Z,2.80
2018-07-03T18:38:50.139Z,2.65
2018-07-03T18:41:18.883Z,4.25
2018-07-03T18:43:47.426Z,1.27
2018-07-03T18:46:15.948Z,2.05
2018-07-03T18:48:44.432Z,1.12
2018-07-03T18:51:12.980Z,3.60
2018-07-03T18:53:41.661Z,2.77
2018-07-03T18:56:10.163Z,2.50
2018-07-03T18:58:38.685Z,3.17
2018-07-03T19:01:07.322Z,2.52
2018-07-03T19:03:36.582Z,5.80
2018-07-03T19:06:05.474Z,14.73
2018-07-03T19:08:34.002Z,6.53
2018-07-03T19:11:03.039Z,11.03
2018-07-03T19:13:32.919Z,5.87
2018-07-03T19:16:01.525Z,6.10
2018-07-03T19:18:30.466Z,12.85
2018-07-03T19:20:59.366Z,10.05
2018-07-03T19:23:27.841Z,12.18
2018-07-03T19:25:57.434Z,7.80
2018-07-03T19:28:25.911Z,11.93
2018-07-03T19:30:54.599Z,7.62
2018-07-03T19:33:23.099Z,12.68
2018-07-03T19:35:51.724Z,7.97
2018-07-03T19:38:23.731Z,11.55
2018-07-03T19:40:52.218Z,14.35
2018-07-03T19:43:25.398Z,6.78
2018-07-03T19:45:55.877Z,11.90
2018-07-03T19:48:28.435Z,17.27
2018-07-03T19:50:57.761Z,16.77
2018-07-03T19:53:28.703Z,13.15
2018-07-03T19:58:31.739Z,17.62
2018-07-03T20:01:00.551Z,11.08
2018-07-03T20:03:29.478Z,10.28
2018-07-03T20:06:00.304Z,6.95
2018-07-03T20:08:29.498Z,11.30
2018-07-03T20:10:58.131Z,10.53
2018-07-03T20:13:26.623Z,8.53
2018-07-03T20:15:55.473Z,2.10
2018-07-03T20:18:27.759Z,10.70
2018-07-03T20:20:56.311Z,8.15
2018-07-03T20:23:24.818Z,6.87
2018-07-03T20:25:53.305Z,2.10
2018-07-03T20:28:21.910Z,5.92
2018-07-03T20:30:52.725Z,6.28
2018-07-03T20:33:21.634Z,3.12
2018-07-03T20:35:50.919Z,4.85
2018-07-03T20:38:19.898Z,6.92
2018-07-03T20:40:58.254Z,3.42
2018-07-03T20:43:27.982Z,3.83
2018-07-03T20:45:56.476Z,5.78
2018-07-03T20:48:25.649Z,4.30
2018-07-03T20:50:55.947Z,4.55
2018-07-03T20:53:24.579Z,5.53
2018-07-03T20:55:53.462Z,3.75
2018-07-03T20:58:22.510Z,3.20
2018-07-03T21:00:50.987Z,4.00
2018-07-03T21:03:19.558Z,3.50
2018-07-03T21:05:48.694Z,5.87
2018-07-03T21:08:17.216Z,4.47
2018-07-03T21:10:45.766Z,3.30
2018-07-03T21:13:14.349Z,7.65
2018-07-03T21:15:42.865Z,5.15
2018-07-03T21:18:11.529Z,6.42
2018-07-03T21:20:40.155Z,6.53
2018-07-03T21:23:08.720Z,4.37
2018-07-03T21:25:37.383Z,8.65
2018-07-03T21:28:06.050Z,5.67
2018-07-03T21:30:34.611Z,8.00
2018-07-03T21:33:04.230Z,7.40
2018-07-03T21:35:34.479Z,4.78
2018-07-03T21:38:05.270Z,9.03
2018-07-03T21:40:33.813Z,6.85
2018-07-03T21:43:07.019Z,4.95
2018-07-03T21:45:35.490Z,6.80
2018-07-03T21:48:04.027Z,4.80
2018-07-03T21:50:33.420Z,7.62
2018-07-03T21:53:01.908Z,4.95
2018-07-03T21:55:30.383Z,5.65
2018-07-03T21:58:04.771Z,5.50
2018-07-03T22:00:36.636Z,5.95
2018-07-03T22:03:10.362Z,5.17
2018-07-03T22:05:39.615Z,4.37
2018-07-03T22:08:08.127Z,4.50
2018-07-03T22:10:36.606Z,7.78
2018-07-03T22:13:05.100Z,5.08
2018-07-03T22:15:33.550Z,4.28
2018-07-03T22:18:02.089Z,9.03
2018-07-03T22:20:30.569Z,5.58
2018-07-03T22:22:59.051Z,5.65
2018-07-03T22:25:27.592Z,6.95
2018-07-03T22:27:56.094Z,6.08
2018-07-03T22:30:24.599Z,5.40
2018-07-03T22:32:53.119Z,5.15
2018-07-03T22:35:21.646Z,5.72
2018-07-03T22:37:50.173Z,7.05
2018-07-03T22:40:19.807Z,7.22
2018-07-03T22:42:48.319Z,6.25
2018-07-03T22:45:16.786Z,5.65
2018-07-03T22:47:46.107Z,8.90
2018-07-03T22:50:14.579Z,6.78
2018-07-03T22:52:43.203Z,5.83
2018-07-03T22:55:11.674Z,6.75
2018-07-03T22:57:40.170Z,5.30
2018-07-03T23:00:08.665Z,8.78
2018-07-03T23:02:37.395Z,5.20
2018-07-03T23:05:06.250Z,6.83
2018-07-03T23:07:35.042Z,6.92
2018-07-03T23:10:03.642Z,6.95
2018-07-03T23:12:32.130Z,5.20
2018-07-03T23:15:00.637Z,8.03
2018-07-03T23:17:31.016Z,5.10
2018-07-03T23:19:59.560Z,6.75
2018-07-03T23:22:28.046Z,6.10
2018-07-03T23:24:56.571Z,6.20
2018-07-03T23:27:25.385Z,5.22
2018-07-03T23:29:53.890Z,5.75
2018-07-03T23:32:24.564Z,6.55
2018-07-03T23:34:53.103Z,11.30
2018-07-03T23:37:21.598Z,9.15
2018-07-03T23:39:50.116Z,7.17
2018-07-03T23:42:18.786Z,5.28
2018-07-03T23:44:47.297Z,5.67
2018-07-03T23:47:26.848Z,6.17
2018-07-03T23:50:06.472Z,5.35
2018-07-03T23:52:46.134Z,8.28
2018-07-03T23:55:25.756Z,8.45
2018-07-03T23:58:05.214Z,5.55
